Time;durP1;ratioP1;P1;durP2;ratioP2;P2;SDS_P1;SDS_P2;PMS_P1;PMS_P2;Temp;Humidity;BMP_temperature;BMP_pressure;BME280_temperature;BME280_humidity;BME280_pressure;Samples;Min_cycle;Max_cycle;Signal;HPM_P1;HPM_P2
2023/02/14 00:02:10;;;;;;;64.97;30.67;;;;;;;;;;5032606;28;20140;-73
2023/02/14 00:04:42;;;;;;;68.90;35.22;;;;;;;;;;5038695;28;20040;-73
2023/02/14 00:07:09;;;;;;;75.65;37.28;;;;;;;;;;5036159;28;20037;-73
2023/02/14 00:09:35;;;;;;;72.57;37.25;;;;;;;;;;5040814;28;20029;-74
2023/02/14 00:12:01;;;;;;;70.97;37.17;;;;;;;;;;5048702;28;20070;-73
2023/02/14 00:17:11;;;;;;;62.28;32.55;;;;;;;;;;5040076;28;20060;-73
2023/02/14 00:19:37;;;;;;;66.40;33.35;;;;;;;;;;5047566;28;20406;-73
2023/02/14 00:22:03;;;;;;;80.28;41.50;;;;;;;;;;5037924;28;20041;-73
2023/02/14 00:24:30;;;;;;;82.45;41.95;;;;;;;;;;5041444;28;20040;-73
2023/02/14 00:26:56;;;;;;;77.60;42.70;;;;;;;;;;5029253;28;20033;-73
2023/02/14 00:29:23;;;;;;;76.88;39.67;;;;;;;;;;5038087;28;20629;-73
2023/02/14 00:31:49;;;;;;;80.55;38.22;;;;;;;;;;5048873;28;20493;-73
2023/02/14 00:34:16;;;;;;;74.90;39.22;;;;;;;;;;5045984;28;20056;-73
2023/02/14 00:36:42;;;;;;;84.93;41.25;;;;;;;;;;5040189;28;20098;-73
2023/02/14 00:39:09;;;;;;;81.60;38.35;;;;;;;;;;5037947;28;20112;-73
2023/02/14 00:41:35;;;;;;;87.13;42.13;;;;;;;;;;5038992;28;20074;-73
2023/02/14 00:44:02;;;;;;;86.53;42.53;;;;;;;;;;5041406;28;20050;-73
2023/02/14 00:46:28;;;;;;;104.68;50.60;;;;;;;;;;5033948;28;20069;-73
2023/02/14 00:48:54;;;;;;;95.88;47.33;;;;;;;;;;5044565;28;20043;-73
2023/02/14 00:51:21;;;;;;;92.35;46.85;;;;;;;;;;5046552;28;20108;-73
2023/02/14 00:53:48;;;;;;;89.38;42.33;;;;;;;;;;5041620;28;20037;-73
2023/02/14 00:56:14;;;;;;;78.82;41.33;;;;;;;;;;5037241;28;20037;-73
2023/02/14 00:58:40;;;;;;;69.97;36.78;;;;;;;;;;5040384;28;20060;-73
2023/02/14 01:01:07;;;;;;;68.35;34.88;;;;;;;;;;5041971;28;20028;-73
2023/02/14 01:03:33;;;;;;;55.90;27.40;;;;;;;;;;5044344;28;20041;-73
2023/02/14 01:05:59;;;;;;;53.25;25.35;;;;;;;;;;5040063;28;20078;-73
2023/02/14 01:08:26;;;;;;;51.10;22.45;;;;;;;;;;5045577;28;20037;-73
2023/02/14 01:10:52;;;;;;;50.28;27.38;;;;;;;;;;5043084;28;20070;-73
2023/02/14 01:13:18;;;;;;;58.58;34.55;;;;;;;;;;5037438;28;20037;-73
2023/02/14 01:15:45;;;;;;;54.78;29.45;;;;;;;;;;5044809;28;20063;-73
2023/02/14 01:18:12;;;;;;;49.20;28.25;;;;;;;;;;5040798;28;20037;-74
2023/02/14 01:20:38;;;;;;;42.45;23.02;;;;;;;;;;5047170;28;20040;-73
2023/02/14 01:23:04;;;;;;;40.72;21.33;;;;;;;;;;5043055;28;20041;-73
2023/02/14 01:25:30;;;;;;;40.75;23.13;;;;;;;;;;5047328;28;20041;-73
2023/02/14 01:27:56;;;;;;;40.33;21.23;;;;;;;;;;5048826;28;20029;-73
2023/02/14 01:30:22;;;;;;;32.83;18.58;;;;;;;;;;5048153;28;20072;-73
2023/02/14 01:32:49;;;;;;;35.50;19.83;;;;;;;;;;5048039;28;20078;-73
2023/02/14 01:35:15;;;;;;;35.53;19.50;;;;;;;;;;5043985;28;20056;-74
2023/02/14 01:37:41;;;;;;;32.50;16.30;;;;;;;;;;5040655;28;20037;-73
2023/02/14 01:40:08;;;;;;;33.22;19.25;;;;;;;;;;5043835;28;20037;-73
2023/02/14 01:42:35;;;;;;;37.50;18.40;;;;;;;;;;5045066;28;20057;-73
2023/02/14 01:45:03;;;;;;;34.15;18.40;;;;;;;;;;5047788;28;20044;-73
2023/02/14 01:47:32;;;;;;;34.08;17.27;;;;;;;;;;5037823;28;20458;-73
2023/02/14 01:50:08;;;;;;;41.08;19.13;;;;;;;;;;5033481;28;20108;-73
2023/02/14 01:52:37;;;;;;;35.45;18.40;;;;;;;;;;5039880;28;20025;-74
2023/02/14 01:55:06;;;;;;;33.40;16.60;;;;;;;;;;5040018;28;20030;-73
2023/02/14 01:57:40;;;;;;;32.78;18.05;;;;;;;;;;5043181;28;20033;-73
2023/02/14 02:02:52;;;;;;;47.10;22.88;;;;;;;;;;5046481;28;20047;-73
2023/02/14 02:05:22;;;;;;;60.13;33.05;;;;;;;;;;5040857;28;20466;-73
2023/02/14 02:07:48;;;;;;;66.85;37.63;;;;;;;;;;5029262;28;20120;-73
2023/02/14 02:10:14;;;;;;;66.53;34.03;;;;;;;;;;5041540;28;20033;-73
2023/02/14 02:12:40;;;;;;;57.20;30.15;;;;;;;;;;5035500;28;20461;-73
2023/02/14 02:15:07;;;;;;;47.67;27.45;;;;;;;;;;5040062;28;20029;-73
2023/02/14 02:17:39;;;;;;;44.47;24.90;;;;;;;;;;5040485;28;20033;-72
2023/02/14 02:20:11;;;;;;;44.65;24.92;;;;;;;;;;5026690;28;20120;-73
2023/02/14 02:22:43;;;;;;;39.47;19.70;;;;;;;;;;5039753;28;20061;-73
2023/02/14 02:25:21;;;;;;;45.50;19.80;;;;;;;;;;5037568;28;20033;-73
2023/02/14 02:27:50;;;;;;;37.47;19.05;;;;;;;;;;5042437;28;20036;-73
2023/02/14 02:30:16;;;;;;;41.40;19.40;;;;;;;;;;5049014;28;20029;-73
2023/02/14 02:32:48;;;;;;;35.78;16.38;;;;;;;;;;5044259;28;20036;-73
2023/02/14 02:35:14;;;;;;;39.65;18.65;;;;;;;;;;5044729;28;20037;-73
2023/02/14 02:37:48;;;;;;;35.40;16.63;;;;;;;;;;5040643;28;20381;-73
2023/02/14 02:40:17;;;;;;;41.55;16.58;;;;;;;;;;5040988;28;20393;-73
2023/02/14 02:43:04;;;;;;;33.92;14.05;;;;;;;;;;5046738;28;20061;-73
2023/02/14 02:49:03;;;;;;;23.73;11.32;;;;;;;;;;5042294;28;20119;-73
2023/02/14 02:54:30;;;;;;;22.27;10.70;;;;;;;;;;5039631;28;20044;-73
2023/02/14 02:56:58;;;;;;;29.88;11.77;;;;;;;;;;5045956;28;20048;-73
2023/02/14 02:59:24;;;;;;;28.45;12.63;;;;;;;;;;5041043;28;20057;-73
2023/02/14 03:01:53;;;;;;;22.52;11.93;;;;;;;;;;5044558;28;20075;-73
2023/02/14 03:07:33;;;;;;;25.45;12.73;;;;;;;;;;5043004;28;20095;-73
2023/02/14 03:09:57;;;;;;;26.02;12.32;;;;;;;;;;5036649;28;20033;-73
2023/02/14 03:12:36;;;;;;;23.70;11.50;;;;;;;;;;5046529;28;20056;-73
2023/02/14 03:15:14;;;;;;;22.33;11.15;;;;;;;;;;5036895;28;20946;-73
2023/02/14 03:20:55;;;;;;;25.33;11.60;;;;;;;;;;5043064;28;20488;-73
2023/02/14 03:23:25;;;;;;;29.88;12.88;;;;;;;;;;5038193;28;20128;-73
2023/02/14 03:26:09;;;;;;;29.10;12.18;;;;;;;;;;5045012;28;20029;-73
2023/02/14 03:28:45;;;;;;;20.92;10.27;;;;;;;;;;5041622;28;20091;-73
2023/02/14 03:31:18;;;;;;;23.67;10.77;;;;;;;;;;5044374;28;20033;-73
2023/02/14 03:33:48;;;;;;;25.55;10.68;;;;;;;;;;5035647;28;20080;-73
2023/02/14 03:36:17;;;;;;;24.33;11.40;;;;;;;;;;5049136;28;20147;-73
2023/02/14 03:39:01;;;;;;;24.55;11.75;;;;;;;;;;5041996;28;20634;-73
2023/02/14 03:41:29;;;;;;;24.52;10.50;;;;;;;;;;5044670;28;20044;-73
2023/02/14 03:43:57;;;;;;;27.35;12.23;;;;;;;;;;5044082;28;20056;-73
2023/02/14 03:46:27;;;;;;;22.65;11.75;;;;;;;;;;5039889;28;20044;-73
2023/02/14 03:48:54;;;;;;;21.75;10.15;;;;;;;;;;5043636;28;20033;-73
2023/02/14 03:51:21;;;;;;;20.80;9.40;;;;;;;;;;5041106;28;20017;-73
2023/02/14 03:53:49;;;;;;;21.45;9.45;;;;;;;;;;5046504;28;20026;-73
2023/02/14 03:56:18;;;;;;;19.25;9.40;;;;;;;;;;5036976;28;20033;-73
2023/02/14 03:58:46;;;;;;;21.55;10.73;;;;;;;;;;5047816;28;20060;-73
2023/02/14 04:01:28;;;;;;;20.05;9.27;;;;;;;;;;5042260;28;20828;-73
2023/02/14 04:03:55;;;;;;;17.90;9.57;;;;;;;;;;5040356;28;20029;-73
2023/02/14 04:06:21;;;;;;;23.40;10.18;;;;;;;;;;5037243;28;20025;-73
2023/02/14 04:08:47;;;;;;;24.23;9.98;;;;;;;;;;5042930;28;20042;-73
2023/02/14 04:11:13;;;;;;;24.08;10.57;;;;;;;;;;5037574;28;20556;-73
2023/02/14 04:13:39;;;;;;;21.70;10.20;;;;;;;;;;5039220;28;20109;-73
2023/02/14 04:16:05;;;;;;;21.60;10.63;;;;;;;;;;5041203;28;20108;-73
2023/02/14 04:21:16;;;;;;;26.08;10.52;;;;;;;;;;5041084;28;20044;-73
2023/02/14 04:23:42;;;;;;;25.00;10.98;;;;;;;;;;5047110;28;20041;-73
2023/02/14 04:26:08;;;;;;;26.33;11.65;;;;;;;;;;5042352;28;20032;-73
2023/02/14 04:28:34;;;;;;;31.00;14.48;;;;;;;;;;5047899;28;20067;-73
2023/02/14 04:31:01;;;;;;;35.83;16.15;;;;;;;;;;5039854;28;20100;-73
2023/02/14 04:33:28;;;;;;;38.67;17.08;;;;;;;;;;5048005;28;20923;-73
2023/02/14 04:35:53;;;;;;;39.38;17.67;;;;;;;;;;5032636;28;20044;-73
2023/02/14 04:38:19;;;;;;;29.25;14.60;;;;;;;;;;5040415;28;20040;-73
2023/02/14 04:40:47;;;;;;;32.15;14.38;;;;;;;;;;5040818;28;20037;-73
2023/02/14 04:43:13;;;;;;;27.98;13.20;;;;;;;;;;5043018;28;20143;-72
2023/02/14 04:45:39;;;;;;;23.95;12.25;;;;;;;;;;5041042;28;20040;-73
2023/02/14 04:48:05;;;;;;;26.70;12.85;;;;;;;;;;5042612;28;20087;-72
2023/02/14 04:50:31;;;;;;;23.33;13.38;;;;;;;;;;5041263;28;20576;-73
2023/02/14 04:52:57;;;;;;;24.50;13.25;;;;;;;;;;5042999;28;20060;-73
2023/02/14 04:55:23;;;;;;;42.08;22.65;;;;;;;;;;5043162;28;20025;-73
2023/02/14 04:57:49;;;;;;;36.58;16.58;;;;;;;;;;5036779;28;20116;-73
2023/02/14 05:00:15;;;;;;;30.52;16.65;;;;;;;;;;5044180;28;20029;-73
2023/02/14 05:02:41;;;;;;;31.17;15.32;;;;;;;;;;5037413;28;20624;-73
2023/02/14 05:05:07;;;;;;;27.63;15.05;;;;;;;;;;5037432;28;20029;-73
2023/02/14 05:07:33;;;;;;;30.95;14.65;;;;;;;;;;5039156;28;20885;-73
2023/02/14 05:09:59;;;;;;;30.98;15.75;;;;;;;;;;5035303;28;20061;-73
2023/02/14 05:12:25;;;;;;;33.53;17.40;;;;;;;;;;5041567;28;20112;-73
2023/02/14 05:14:51;;;;;;;40.67;23.38;;;;;;;;;;5041184;28;20030;-73
2023/02/14 05:17:17;;;;;;;42.55;21.48;;;;;;;;;;5037955;28;20044;-73
2023/02/14 05:19:44;;;;;;;38.70;21.20;;;;;;;;;;5041336;28;20057;-73
2023/02/14 05:22:10;;;;;;;43.15;19.65;;;;;;;;;;5047837;28;20040;-73
2023/02/14 05:24:36;;;;;;;42.95;20.85;;;;;;;;;;5037143;28;20033;-73
2023/02/14 05:27:02;;;;;;;44.53;22.20;;;;;;;;;;5043518;28;20123;-73
2023/02/14 05:29:28;;;;;;;42.67;22.02;;;;;;;;;;5046042;28;20140;-73
2023/02/14 05:31:54;;;;;;;40.83;21.00;;;;;;;;;;5043384;28;20048;-72
2023/02/14 05:34:20;;;;;;;43.25;22.95;;;;;;;;;;5039359;28;20033;-73
2023/02/14 05:36:46;;;;;;;40.38;23.08;;;;;;;;;;5040587;28;20479;-73
2023/02/14 05:39:13;;;;;;;35.35;19.52;;;;;;;;;;5041674;28;20148;-73
2023/02/14 05:41:40;;;;;;;34.25;18.60;;;;;;;;;;5036749;28;20045;-73
2023/02/14 05:44:06;;;;;;;31.38;17.98;;;;;;;;;;5043378;28;20041;-73
2023/02/14 05:46:32;;;;;;;33.33;17.95;;;;;;;;;;5032239;28;20092;-73
2023/02/14 05:48:58;;;;;;;31.63;18.52;;;;;;;;;;5037753;28;20532;-73
2023/02/14 05:51:24;;;;;;;28.67;15.93;;;;;;;;;;5041586;28;20048;-73
2023/02/14 05:53:50;;;;;;;30.58;14.65;;;;;;;;;;5038621;28;20051;-73
2023/02/14 05:56:16;;;;;;;31.85;16.23;;;;;;;;;;5044793;28;20094;-73
2023/02/14 05:58:43;;;;;;;26.63;15.20;;;;;;;;;;5040150;28;20037;-73
2023/02/14 06:01:09;;;;;;;28.77;16.25;;;;;;;;;;5043908;28;20625;-73
2023/02/14 06:03:35;;;;;;;28.13;15.90;;;;;;;;;;5038771;28;20029;-73
2023/02/14 06:06:01;;;;;;;38.78;20.50;;;;;;;;;;5040266;28;20029;-73
2023/02/14 06:08:27;;;;;;;69.82;31.00;;;;;;;;;;5042577;28;20368;-73
2023/02/14 06:10:53;;;;;;;58.63;30.42;;;;;;;;;;5042831;28;20040;-73
2023/02/14 06:13:19;;;;;;;74.68;33.83;;;;;;;;;;5041886;28;20040;-73
2023/02/14 06:15:45;;;;;;;59.67;29.33;;;;;;;;;;5044225;28;21568;-73
2023/02/14 06:18:11;;;;;;;55.17;28.77;;;;;;;;;;5040975;28;20099;-72
2023/02/14 06:20:37;;;;;;;62.67;30.90;;;;;;;;;;5039092;28;20045;-73
2023/02/14 06:23:03;;;;;;;58.42;30.50;;;;;;;;;;5043529;28;20037;-72
2023/02/14 06:25:29;;;;;;;59.35;30.15;;;;;;;;;;5041543;28;20120;-74
2023/02/14 06:27:56;;;;;;;58.47;30.40;;;;;;;;;;5045244;28;20025;-73
2023/02/14 06:30:22;;;;;;;54.17;29.83;;;;;;;;;;5041677;28;20037;-72
2023/02/14 06:32:48;;;;;;;58.40;29.77;;;;;;;;;;5038760;28;20747;-73
2023/02/14 06:35:14;;;;;;;56.88;29.42;;;;;;;;;;5045855;28;20033;-73
2023/02/14 06:37:41;;;;;;;58.47;32.50;;;;;;;;;;5039245;28;20029;-73
2023/02/14 06:40:08;;;;;;;56.22;34.78;;;;;;;;;;5038543;28;20033;-73
2023/02/14 06:42:34;;;;;;;59.17;29.25;;;;;;;;;;5041608;28;20549;-72
2023/02/14 06:45:01;;;;;;;66.57;35.17;;;;;;;;;;5043367;28;20069;-73
2023/02/14 06:47:27;;;;;;;56.55;31.60;;;;;;;;;;5040367;28;20412;-73
2023/02/14 06:49:53;;;;;;;76.78;39.63;;;;;;;;;;5046612;28;20033;-73
2023/02/14 06:52:19;;;;;;;73.22;40.08;;;;;;;;;;5037268;28;20131;-72
2023/02/14 06:54:45;;;;;;;71.43;37.63;;;;;;;;;;5041150;28;20043;-73
2023/02/14 06:57:11;;;;;;;78.80;39.35;;;;;;;;;;5040126;28;20039;-72
2023/02/14 06:59:37;;;;;;;81.82;44.83;;;;;;;;;;5036252;28;20029;-73
2023/02/14 07:02:03;;;;;;;82.95;41.55;;;;;;;;;;5039261;28;20504;-73
2023/02/14 07:04:29;;;;;;;78.75;39.15;;;;;;;;;;5040499;28;20041;-73
2023/02/14 07:06:55;;;;;;;72.03;38.75;;;;;;;;;;5036601;28;20034;-73
2023/02/14 07:09:21;;;;;;;72.93;35.63;;;;;;;;;;5040410;28;20029;-73
2023/02/14 07:11:47;;;;;;;67.90;33.88;;;;;;;;;;5033795;28;20033;-73
2023/02/14 07:14:13;;;;;;;66.93;30.33;;;;;;;;;;5038214;28;20056;-72
2023/02/14 07:16:39;;;;;;;61.95;33.40;;;;;;;;;;5037121;28;20029;-73
2023/02/14 07:19:05;;;;;;;70.47;36.42;;;;;;;;;;5043435;28;20064;-74
2023/02/14 07:21:31;;;;;;;70.75;35.67;;;;;;;;;;5034327;28;20184;-72
2023/02/14 07:23:57;;;;;;;67.80;33.45;;;;;;;;;;5038306;28;20040;-72
2023/02/14 07:26:26;;;;;;;63.65;33.35;;;;;;;;;;5037978;28;20033;-72
2023/02/14 07:28:52;;;;;;;62.28;31.25;;;;;;;;;;5034918;28;20083;-73
2023/02/14 07:31:21;;;;;;;59.95;32.88;;;;;;;;;;5037180;28;20124;-73
2023/02/14 07:33:47;;;;;;;55.50;28.70;;;;;;;;;;5038084;28;20031;-73
2023/02/14 07:36:13;;;;;;;59.78;29.67;;;;;;;;;;5038128;28;20057;-72
2023/02/14 07:38:39;;;;;;;59.50;30.30;;;;;;;;;;5040329;28;20069;-72
2023/02/14 07:41:05;;;;;;;70.35;34.55;;;;;;;;;;5042971;28;20024;-72
2023/02/14 07:43:33;;;;;;;87.55;43.78;;;;;;;;;;5042316;28;20851;-73
2023/02/14 07:46:00;;;;;;;75.85;39.20;;;;;;;;;;5037929;28;20033;-73
2023/02/14 07:48:26;;;;;;;54.70;30.30;;;;;;;;;;5040302;28;20026;-72
2023/02/14 07:50:55;;;;;;;55.33;26.98;;;;;;;;;;5043205;28;20025;-72
2023/02/14 07:53:21;;;;;;;53.35;24.83;;;;;;;;;;5042285;28;20029;-72
2023/02/14 07:55:50;;;;;;;48.45;24.02;;;;;;;;;;5041034;28;20039;-72
2023/02/14 07:58:16;;;;;;;61.90;32.60;;;;;;;;;;5037997;28;20036;-72
2023/02/14 08:00:43;;;;;;;61.25;31.65;;;;;;;;;;5038728;28;20132;-72
2023/02/14 08:03:09;;;;;;;57.60;31.02;;;;;;;;;;5034504;28;20044;-72
2023/02/14 08:05:35;;;;;;;62.10;29.27;;;;;;;;;;5040076;28;20036;-72
2023/02/14 08:08:01;;;;;;;66.53;32.88;;;;;;;;;;5035340;28;20033;-73
2023/02/14 08:10:27;;;;;;;59.33;33.65;;;;;;;;;;5038093;28;20035;-73
2023/02/14 08:12:59;;;;;;;53.85;28.48;;;;;;;;;;5036864;28;20056;-73
2023/02/14 08:18:14;;;;;;;47.00;25.58;;;;;;;;;;5041611;28;20083;-73
2023/02/14 08:20:40;;;;;;;58.83;29.92;;;;;;;;;;5044086;28;20489;-73
2023/02/14 08:23:06;;;;;;;50.47;26.92;;;;;;;;;;5046967;28;20425;-74
2023/02/14 08:25:32;;;;;;;47.30;26.65;;;;;;;;;;5041953;28;20028;-74
2023/02/14 08:28:00;;;;;;;60.28;33.15;;;;;;;;;;5040148;28;20467;-74
2023/02/14 08:30:26;;;;;;;54.50;30.48;;;;;;;;;;5038697;28;20036;-74
2023/02/14 08:32:52;;;;;;;53.42;28.63;;;;;;;;;;5034294;28;20037;-73
2023/02/14 08:35:18;;;;;;;43.78;24.05;;;;;;;;;;5041916;28;20028;-73
2023/02/14 08:37:44;;;;;;;40.38;23.73;;;;;;;;;;5041387;28;20045;-74
2023/02/14 08:40:11;;;;;;;48.50;23.10;;;;;;;;;;5044284;28;20043;-74
2023/02/14 08:42:37;;;;;;;45.90;24.55;;;;;;;;;;5040495;28;20056;-74
2023/02/14 08:45:03;;;;;;;46.80;24.10;;;;;;;;;;5041166;28;20037;-74
2023/02/14 08:47:34;;;;;;;39.67;21.27;;;;;;;;;;5045885;28;20061;-74
2023/02/14 08:50:01;;;;;;;43.30;22.85;;;;;;;;;;5041066;28;20065;-74
2023/02/14 08:52:27;;;;;;;65.65;34.28;;;;;;;;;;5041389;28;20067;-74
2023/02/14 08:54:53;;;;;;;62.90;33.88;;;;;;;;;;5035854;28;20034;-74
2023/02/14 08:57:19;;;;;;;56.55;28.33;;;;;;;;;;5044459;28;20094;-74
2023/02/14 08:59:45;;;;;;;41.25;22.23;;;;;;;;;;5041105;28;20028;-74
2023/02/14 09:02:12;;;;;;;37.95;20.50;;;;;;;;;;5035990;28;20025;-74
2023/02/14 09:04:38;;;;;;;46.20;23.92;;;;;;;;;;5044680;28;20618;-74
2023/02/14 09:07:04;;;;;;;36.58;19.77;;;;;;;;;;5039800;28;20044;-74
2023/02/14 09:09:31;;;;;;;34.40;18.67;;;;;;;;;;5037964;28;20060;-73
2023/02/14 09:11:57;;;;;;;30.38;16.88;;;;;;;;;;5043256;28;20067;-74
2023/02/14 09:14:23;;;;;;;35.60;19.58;;;;;;;;;;5038212;28;20058;-73
2023/02/14 09:16:49;;;;;;;40.25;20.73;;;;;;;;;;5036781;28;20112;-74
2023/02/14 09:19:15;;;;;;;39.00;19.20;;;;;;;;;;5038727;28;20656;-74
2023/02/14 09:21:41;;;;;;;35.47;19.10;;;;;;;;;;5026521;28;20120;-74
2023/02/14 09:24:07;;;;;;;32.40;17.88;;;;;;;;;;5037233;28;20039;-74
2023/02/14 09:26:35;;;;;;;32.83;20.33;;;;;;;;;;5038356;28;20045;-74
2023/02/14 09:29:01;;;;;;;33.47;17.55;;;;;;;;;;5032327;28;20048;-74
2023/02/14 09:31:27;;;;;;;36.05;18.48;;;;;;;;;;5043054;28;20474;-74
2023/02/14 09:33:53;;;;;;;35.30;16.95;;;;;;;;;;5037856;28;20029;-74
2023/02/14 09:36:19;;;;;;;31.35;17.08;;;;;;;;;;5036698;28;20104;-74
2023/02/14 09:38:46;;;;;;;32.95;16.80;;;;;;;;;;5045076;28;20037;-74
2023/02/14 09:41:30;;;;;;;35.42;18.35;;;;;;;;;;5037661;28;20068;-74
2023/02/14 09:43:55;;;;;;;31.27;15.68;;;;;;;;;;5037645;28;20482;-74
2023/02/14 09:46:23;;;;;;;27.00;14.82;;;;;;;;;;5038441;28;20052;-74
2023/02/14 09:48:49;;;;;;;31.83;17.15;;;;;;;;;;5036942;28;20025;-74
2023/02/14 09:51:18;;;;;;;29.02;15.60;;;;;;;;;;5037613;28;20032;-73
2023/02/14 09:53:44;;;;;;;27.95;14.82;;;;;;;;;;5038803;28;20702;-74
2023/02/14 09:56:16;;;;;;;26.38;14.27;;;;;;;;;;5033663;28;20037;-73
2023/02/14 09:58:52;;;;;;;25.15;13.75;;;;;;;;;;5035082;28;20127;-74
2023/02/14 10:01:22;;;;;;;23.85;12.35;;;;;;;;;;5035814;28;20040;-73
2023/02/14 10:04:08;;;;;;;22.05;10.90;;;;;;;;;;5039542;28;20882;-74
2023/02/14 10:06:46;;;;;;;16.30;7.50;;;;;;;;;;5036412;28;20148;-73
2023/02/14 10:09:21;;;;;;;16.42;6.45;;;;;;;;;;5037061;28;20055;-74
2023/02/14 10:11:48;;;;;;;13.43;6.10;;;;;;;;;;5035834;28;20065;-73
2023/02/14 10:14:16;;;;;;;13.40;6.15;;;;;;;;;;5036167;28;20064;-74
2023/02/14 10:16:45;;;;;;;16.65;8.60;;;;;;;;;;5041032;28;20027;-74
2023/02/14 10:19:11;;;;;;;22.45;9.40;;;;;;;;;;5038537;28;20139;-74
2023/02/14 10:21:40;;;;;;;18.05;8.25;;;;;;;;;;5043085;28;20474;-74
2023/02/14 10:24:13;;;;;;;17.00;8.32;;;;;;;;;;5040019;28;20451;-74
2023/02/14 10:26:40;;;;;;;22.40;9.20;;;;;;;;;;5037398;28;20033;-74
2023/02/14 10:29:08;;;;;;;19.95;9.65;;;;;;;;;;5038688;28;20473;-74
2023/02/14 10:31:39;;;;;;;18.73;10.02;;;;;;;;;;5038318;28;20037;-74
2023/02/14 10:34:12;;;;;;;21.67;9.43;;;;;;;;;;5039433;28;20032;-74
2023/02/14 10:36:38;;;;;;;22.17;9.60;;;;;;;;;;5039186;28;20037;-74
2023/02/14 10:39:10;;;;;;;21.55;9.80;;;;;;;;;;5039369;28;20048;-74
2023/02/14 10:41:52;;;;;;;22.23;9.30;;;;;;;;;;5033278;28;20033;-74
2023/02/14 10:44:18;;;;;;;23.88;9.45;;;;;;;;;;5037390;28;20029;-73
2023/02/14 10:46:50;;;;;;;15.13;7.38;;;;;;;;;;5034970;28;20055;-73
2023/02/14 10:49:40;;;;;;;15.88;7.60;;;;;;;;;;5045882;28;20030;-73
2023/02/14 10:52:28;;;;;;;18.45;7.68;;;;;;;;;;5043938;28;20052;-74
2023/02/14 10:54:56;;;;;;;17.85;6.72;;;;;;;;;;5043350;28;20033;-74
2023/02/14 10:57:26;;;;;;;14.93;7.10;;;;;;;;;;5038631;28;20051;-73
2023/02/14 10:59:55;;;;;;;12.55;5.65;;;;;;;;;;5044834;28;20021;-74
2023/02/14 11:02:23;;;;;;;12.95;5.25;;;;;;;;;;5039144;28;20033;-74
2023/02/14 11:04:50;;;;;;;9.23;3.88;;;;;;;;;;5044750;28;20021;-74
2023/02/14 11:07:17;;;;;;;8.05;3.22;;;;;;;;;;5039334;28;20039;-74
2023/02/14 11:09:43;;;;;;;7.15;3.40;;;;;;;;;;5044592;28;20037;-74
2023/02/14 11:12:09;;;;;;;8.48;3.92;;;;;;;;;;5038020;28;20386;-74
2023/02/14 11:14:39;;;;;;;16.48;6.95;;;;;;;;;;5038601;28;20108;-73
2023/02/14 11:17:24;;;;;;;20.42;6.47;;;;;;;;;;5043840;28;20049;-74
2023/02/14 11:20:06;;;;;;;13.75;4.30;;;;;;;;;;5045014;28;20055;-74
2023/02/14 11:22:33;;;;;;;9.07;3.45;;;;;;;;;;5038902;28;20068;-74
2023/02/14 11:25:04;;;;;;;8.80;3.22;;;;;;;;;;5041087;28;20025;-73
2023/02/14 11:27:30;;;;;;;10.95;3.78;;;;;;;;;;5044770;28;20063;-73
2023/02/14 11:29:56;;;;;;;8.93;3.53;;;;;;;;;;5045071;28;20029;-75
2023/02/14 11:32:29;;;;;;;10.18;3.80;;;;;;;;;;5042521;28;20045;-74
2023/02/14 11:35:04;;;;;;;7.68;3.80;;;;;;;;;;5038739;28;20036;-74
2023/02/14 11:37:35;;;;;;;8.77;3.90;;;;;;;;;;5032711;28;20452;-74
2023/02/14 11:40:02;;;;;;;9.73;4.40;;;;;;;;;;5045624;28;20104;-74
2023/02/14 11:42:47;;;;;;;8.43;3.53;;;;;;;;;;5046466;28;20053;-74
2023/02/14 11:45:29;;;;;;;7.72;3.58;;;;;;;;;;5038443;28;20084;-74
2023/02/14 11:48:08;;;;;;;11.77;3.60;;;;;;;;;;5043294;28;20094;-73
2023/02/14 11:50:35;;;;;;;10.35;3.60;;;;;;;;;;5040098;28;20441;-73
2023/02/14 11:53:02;;;;;;;11.52;3.95;;;;;;;;;;5038064;28;20029;-73
2023/02/14 11:55:29;;;;;;;7.55;2.78;;;;;;;;;;5043478;28;20028;-73
2023/02/14 11:57:56;;;;;;;9.27;4.32;;;;;;;;;;5033628;28;20033;-73
2023/02/14 12:00:25;;;;;;;9.55;3.40;;;;;;;;;;5039184;28;20572;-73
2023/02/14 12:02:52;;;;;;;10.93;4.07;;;;;;;;;;5039295;28;20370;-73
2023/02/14 12:05:23;;;;;;;10.68;3.72;;;;;;;;;;5039561;28;20945;-73
2023/02/14 12:07:50;;;;;;;12.18;3.35;;;;;;;;;;5036698;28;20029;-73
2023/02/14 12:10:23;;;;;;;10.02;4.60;;;;;;;;;;5036364;28;20033;-73
2023/02/14 12:12:48;;;;;;;;;;;;;;;;;;5043006;28;20371;-73
2023/02/14 12:15:26;;;;;;;12.27;4.68;;;;;;;;;;5029092;28;19913;-73
2023/02/14 12:17:56;;;;;;;8.63;4.38;;;;;;;;;;5040798;28;20025;-73
2023/02/14 12:20:37;;;;;;;11.38;4.53;;;;;;;;;;5040579;28;20120;-73
2023/02/14 12:23:22;;;;;;;10.60;4.47;;;;;;;;;;5038389;28;20056;-73
2023/02/14 12:25:50;;;;;;;10.85;4.35;;;;;;;;;;5041579;28;20330;-73
2023/02/14 12:28:19;;;;;;;10.15;4.68;;;;;;;;;;5040612;28;20025;-73
2023/02/14 12:30:45;;;;;;;8.65;4.22;;;;;;;;;;5041128;28;20039;-73
2023/02/14 12:33:23;;;;;;;14.00;5.00;;;;;;;;;;5040645;28;20033;-73
2023/02/14 12:36:08;;;;;;;12.43;6.30;;;;;;;;;;5042096;28;20769;-74
2023/02/14 12:38:34;;;;;;;10.80;5.55;;;;;;;;;;5042693;28;20045;-75
2023/02/14 12:41:09;;;;;;;14.35;5.03;;;;;;;;;;5047015;28;20155;-74
2023/02/14 12:43:38;;;;;;;13.73;4.82;;;;;;;;;;5042293;28;20474;-74
2023/02/14 12:46:04;;;;;;;11.02;4.43;;;;;;;;;;5037744;28;20049;-74
2023/02/14 12:48:46;;;;;;;12.93;4.85;;;;;;;;;;5035235;28;20072;-74
2023/02/14 12:51:17;;;;;;;15.27;5.10;;;;;;;;;;5033853;28;20125;-74
2023/02/14 12:53:52;;;;;;;10.30;4.40;;;;;;;;;;5034785;28;20040;-74
2023/02/14 12:56:36;;;;;;;10.82;4.68;;;;;;;;;;5044169;28;20044;-74
2023/02/14 12:59:05;;;;;;;10.50;4.10;;;;;;;;;;5039570;28;20470;-74
2023/02/14 13:01:54;;;;;;;14.18;5.72;;;;;;;;;;5038771;28;20045;-74
2023/02/14 13:04:20;;;;;;;13.13;5.45;;;;;;;;;;5039000;28;20033;-75
2023/02/14 13:07:04;;;;;;;11.25;5.32;;;;;;;;;;5039388;28;20044;-74
2023/02/14 13:09:30;;;;;;;10.07;4.28;;;;;;;;;;5033442;28;20028;-74
2023/02/14 13:12:03;;;;;;;12.63;4.95;;;;;;;;;;5038381;28;20029;-74
2023/02/14 13:14:41;;;;;;;12.15;4.95;;;;;;;;;;5031843;28;20016;-74
2023/02/14 13:17:16;;;;;;;13.77;5.63;;;;;;;;;;5042511;28;20138;-74
2023/02/14 13:19:42;;;;;;;15.75;5.30;;;;;;;;;;5040164;28;20823;-74
2023/02/14 13:22:11;;;;;;;12.85;4.88;;;;;;;;;;5032760;28;20037;-74
2023/02/14 13:24:41;;;;;;;12.73;4.47;;;;;;;;;;5032139;28;20083;-74
2023/02/14 13:27:11;;;;;;;16.58;5.65;;;;;;;;;;5039658;28;20484;-74
2023/02/14 13:29:48;;;;;;;11.88;4.72;;;;;;;;;;5038572;28;20039;-74
2023/02/14 13:32:16;;;;;;;13.38;5.70;;;;;;;;;;5031420;28;20041;-74
2023/02/14 13:34:43;;;;;;;13.50;5.70;;;;;;;;;;5036051;28;20029;-74
2023/02/14 13:37:11;;;;;;;11.02;5.00;;;;;;;;;;5039396;28;20056;-74
2023/02/14 13:39:39;;;;;;;14.68;6.30;;;;;;;;;;5032457;28;20120;-74
2023/02/14 13:42:05;;;;;;;12.15;5.40;;;;;;;;;;5041566;28;20057;-74
2023/02/14 13:44:42;;;;;;;15.52;5.78;;;;;;;;;;5038630;28;20040;-74
2023/02/14 13:47:15;;;;;;;19.35;8.18;;;;;;;;;;5040915;28;20079;-74
2023/02/14 13:49:46;;;;;;;19.77;8.80;;;;;;;;;;5040400;28;20076;-74
2023/02/14 13:52:12;;;;;;;18.65;8.60;;;;;;;;;;5041136;28;20029;-74
2023/02/14 13:54:48;;;;;;;17.73;7.18;;;;;;;;;;5035974;28;20056;-74
2023/02/14 13:57:32;;;;;;;26.55;8.52;;;;;;;;;;5040429;28;20043;-74
2023/02/14 14:00:31;;;;;;;18.35;7.28;;;;;;;;;;5038518;28;20148;-74
2023/02/14 14:02:57;;;;;;;14.68;5.82;;;;;;;;;;4987639;28;20088;-74
2023/02/14 14:05:29;;;;;;;10.90;4.55;;;;;;;;;;5039444;28;20048;-74
2023/02/14 14:08:14;;;;;;;8.93;3.72;;;;;;;;;;5022968;28;20044;-74
2023/02/14 14:10:43;;;;;;;9.30;2.90;;;;;;;;;;5040741;28;20063;-74
2023/02/14 14:13:09;;;;;;;9.23;2.40;;;;;;;;;;5039187;28;20049;-74
2023/02/14 14:15:35;;;;;;;7.03;2.45;;;;;;;;;;5045097;28;20502;-73
2023/02/14 14:18:14;;;;;;;7.18;2.60;;;;;;;;;;5038888;28;20029;-75
2023/02/14 14:20:39;;;;;;;4.85;2.10;;;;;;;;;;5040030;28;20032;-74
2023/02/14 14:23:24;;;;;;;6.40;2.05;;;;;;;;;;5041557;28;20039;-74
2023/02/14 14:25:50;;;;;;;6.70;3.00;;;;;;;;;;5037954;28;20036;-74
2023/02/14 14:28:20;;;;;;;8.80;3.20;;;;;;;;;;5043026;28;20451;-73
2023/02/14 14:30:47;;;;;;;9.60;4.40;;;;;;;;;;5047183;28;20028;-73
2023/02/14 14:33:14;;;;;;;14.82;5.35;;;;;;;;;;5044475;28;20116;-74
2023/02/14 14:35:51;;;;;;;13.45;6.38;;;;;;;;;;5039864;28;20033;-74
2023/02/14 14:38:17;;;;;;;12.00;6.35;;;;;;;;;;5041470;28;20048;-74
2023/02/14 14:40:45;;;;;;;13.32;6.90;;;;;;;;;;5046847;28;20494;-74
2023/02/14 14:43:16;;;;;;;15.90;7.65;;;;;;;;;;5038043;28;20046;-73
2023/02/14 14:45:45;;;;;;;13.32;7.72;;;;;;;;;;5047973;28;20128;-74
2023/02/14 14:48:13;;;;;;;15.50;8.20;;;;;;;;;;5042143;28;20037;-73
2023/02/14 14:50:43;;;;;;;18.20;8.77;;;;;;;;;;5040525;28;21133;-74
2023/02/14 14:53:18;;;;;;;14.93;8.38;;;;;;;;;;5042034;28;20036;-74
2023/02/14 14:55:50;;;;;;;12.93;7.50;;;;;;;;;;5040934;28;20098;-73
2023/02/14 14:58:37;;;;;;;13.25;6.32;;;;;;;;;;5039319;28;20029;-73